sensor_id;sensor_type;location;lat;lon;timestamp;pressure;altitude;pressure_sealevel;temperature;humidity
19114;BME280;9689;51.052;13.772;2023-03-03T00:03:07;100931.53;;;-0.31;88.15
19114;BME280;9689;51.052;13.772;2023-03-03T00:08:09;100931.69;;;-0.26;88.07
19114;BME280;9689;51.052;13.772;2023-03-03T00:13:17;100936.44;;;-0.37;87.86
19114;BME280;9689;51.052;13.772;2023-03-03T00:18:25;100935.50;;;-0.39;88.43
19114;BME280;9689;51.052;13.772;2023-03-03T00:23:30;100941.44;;;-0.40;88.06
19114;BME280;9689;51.052;13.772;2023-03-03T00:28:43;100939.50;;;-0.21;88.03
19114;BME280;9689;51.052;13.772;2023-03-03T00:33:46;100943.59;;;-0.26;88.35
19114;BME280;9689;51.052;13.772;2023-03-03T00:38:49;100953.19;;;-0.21;88.27
19114;BME280;9689;51.052;13.772;2023-03-03T00:43:52;100947.44;;;-0.39;88.02
19114;BME280;9689;51.052;13.772;2023-03-03T00:48:53;100943.41;;;-0.33;88.64
19114;BME280;9689;51.052;13.772;2023-03-03T00:53:54;100947.72;;;-0.32;88.22
19114;BME280;9689;51.052;13.772;2023-03-03T00:58:57;100950.78;;;-0.42;88.34
19114;BME280;9689;51.052;13.772;2023-03-03T01:04:00;100952.63;;;-0.62;88.48
19114;BME280;9689;51.052;13.772;2023-03-03T01:09:01;100954.31;;;-0.62;89.24
19114;BME280;9689;51.052;13.772;2023-03-03T01:14:03;100956.28;;;-0.55;88.59
19114;BME280;9689;51.052;13.772;2023-03-03T01:19:03;100959.44;;;-0.62;88.94
19114;BME280;9689;51.052;13.772;2023-03-03T01:24:04;100961.91;;;-0.88;89.61
19114;BME280;9689;51.052;13.772;2023-03-03T01:29:06;100959.53;;;-0.83;89.86
19114;BME280;9689;51.052;13.772;2023-03-03T01:34:07;100953.13;;;-0.72;89.38
19114;BME280;9689;51.052;13.772;2023-03-03T01:39:09;100961.97;;;-0.62;88.75
19114;BME280;9689;51.052;13.772;2023-03-03T01:44:13;100959.63;;;-1.04;89.45
19114;BME280;9689;51.052;13.772;2023-03-03T01:49:17;100955.09;;;-0.87;89.11
19114;BME280;9689;51.052;13.772;2023-03-03T01:54:24;100948.44;;;-0.83;89.01
19114;BME280;9689;51.052;13.772;2023-03-03T01:59:31;100945.97;;;-0.80;88.28
19114;BME280;9689;51.052;13.772;2023-03-03T02:04:34;100946.84;;;-0.80;89.05
19114;BME280;9689;51.052;13.772;2023-03-03T02:09:41;100935.84;;;-1.01;88.82
19114;BME280;9689;51.052;13.772;2023-03-03T02:14:45;100940.97;;;-1.01;89.38
19114;BME280;9689;51.052;13.772;2023-03-03T02:19:51;100945.25;;;-1.23;90.21
19114;BME280;9689;51.052;13.772;2023-03-03T02:24:56;100948.09;;;-1.15;89.75
19114;BME280;9689;51.052;13.772;2023-03-03T02:30:18;100948.59;;;-1.25;90.17
19114;BME280;9689;51.052;13.772;2023-03-03T02:35:28;100946.09;;;-1.24;89.34
19114;BME280;9689;51.052;13.772;2023-03-03T02:40:33;100951.50;;;-1.38;90.31
19114;BME280;9689;51.052;13.772;2023-03-03T02:45:42;100941.22;;;-1.18;90.12
19114;BME280;9689;51.052;13.772;2023-03-03T02:50:43;100950.56;;;-1.18;89.75
19114;BME280;9689;51.052;13.772;2023-03-03T02:55:44;100941.97;;;-1.20;89.75
19114;BME280;9689;51.052;13.772;2023-03-03T03:00:48;100944.19;;;-1.29;89.43
19114;BME280;9689;51.052;13.772;2023-03-03T03:05:53;100955.56;;;-1.21;89.21
19114;BME280;9689;51.052;13.772;2023-03-03T03:10:56;100955.78;;;-1.15;88.99
19114;BME280;9689;51.052;13.772;2023-03-03T03:16:00;100965.50;;;-1.29;89.17
19114;BME280;9689;51.052;13.772;2023-03-03T03:21:05;100971.72;;;-1.45;89.68
19114;BME280;9689;51.052;13.772;2023-03-03T03:26:07;100974.50;;;-1.38;90.03
19114;BME280;9689;51.052;13.772;2023-03-03T03:31:09;100971.09;;;-1.39;89.86
19114;BME280;9689;51.052;13.772;2023-03-03T03:36:10;100963.31;;;-1.40;89.70
19114;BME280;9689;51.052;13.772;2023-03-03T03:41:12;100963.28;;;-1.42;89.75
19114;BME280;9689;51.052;13.772;2023-03-03T03:46:15;100953.25;;;-1.37;89.99
19114;BME280;9689;51.052;13.772;2023-03-03T03:51:16;100955.09;;;-1.33;90.07
19114;BME280;9689;51.052;13.772;2023-03-03T03:56:17;100970.47;;;-1.54;90.13
19114;BME280;9689;51.052;13.772;2023-03-03T04:01:23;100983.88;;;-1.60;90.16
19114;BME280;9689;51.052;13.772;2023-03-03T04:06:26;100981.44;;;-1.57;90.35
19114;BME280;9689;51.052;13.772;2023-03-03T04:11:27;100979.38;;;-1.65;90.55
19114;BME280;9689;51.052;13.772;2023-03-03T04:16:30;100994.97;;;-1.59;89.99
19114;BME280;9689;51.052;13.772;2023-03-03T04:21:31;100996.16;;;-1.72;90.71
19114;BME280;9689;51.052;13.772;2023-03-03T04:26:33;100988.22;;;-1.57;90.19
19114;BME280;9689;51.052;13.772;2023-03-03T04:31:39;101015.03;;;-1.68;90.60
19114;BME280;9689;51.052;13.772;2023-03-03T04:36:41;101002.16;;;-1.72;90.52
19114;BME280;9689;51.052;13.772;2023-03-03T04:41:42;100995.03;;;-1.58;90.31
19114;BME280;9689;51.052;13.772;2023-03-03T04:46:44;101014.47;;;-1.61;89.90
19114;BME280;9689;51.052;13.772;2023-03-03T04:51:45;101016.47;;;-1.75;90.08
19114;BME280;9689;51.052;13.772;2023-03-03T04:56:45;101012.47;;;-1.68;89.59
19114;BME280;9689;51.052;13.772;2023-03-03T05:01:48;101012.03;;;-1.58;89.46
19114;BME280;9689;51.052;13.772;2023-03-03T05:06:49;101003.88;;;-1.50;89.51
19114;BME280;9689;51.052;13.772;2023-03-03T05:11:50;101014.84;;;-1.52;89.54
19114;BME280;9689;51.052;13.772;2023-03-03T05:16:52;101018.28;;;-1.08;88.96
19114;BME280;9689;51.052;13.772;2023-03-03T05:21:53;101008.84;;;-1.09;88.86
19114;BME280;9689;51.052;13.772;2023-03-03T05:26:54;100993.38;;;-1.35;88.29
19114;BME280;9689;51.052;13.772;2023-03-03T05:31:56;101010.88;;;-1.23;88.74
19114;BME280;9689;51.052;13.772;2023-03-03T05:36:56;101004.31;;;-1.17;89.15
19114;BME280;9689;51.052;13.772;2023-03-03T05:41:57;101006.09;;;-1.36;89.74
19114;BME280;9689;51.052;13.772;2023-03-03T05:47:00;101019.50;;;-1.21;89.52
19114;BME280;9689;51.052;13.772;2023-03-03T05:52:00;101015.16;;;-1.22;89.75
19114;BME280;9689;51.052;13.772;2023-03-03T05:57:01;101016.81;;;-1.24;89.93
19114;BME280;9689;51.052;13.772;2023-03-03T06:02:03;101010.06;;;-1.22;89.96
19114;BME280;9689;51.052;13.772;2023-03-03T06:07:04;101019.66;;;-1.17;90.32
19114;BME280;9689;51.052;13.772;2023-03-03T06:12:06;101001.94;;;-1.12;90.33
19114;BME280;9689;51.052;13.772;2023-03-03T06:17:08;101006.09;;;-1.14;90.87
19114;BME280;9689;51.052;13.772;2023-03-03T06:22:09;101011.31;;;-1.12;90.27
19114;BME280;9689;51.052;13.772;2023-03-03T06:27:09;101015.72;;;-1.08;90.27
19114;BME280;9689;51.052;13.772;2023-03-03T06:32:11;101012.75;;;-1.19;89.95
19114;BME280;9689;51.052;13.772;2023-03-03T06:37:12;101034.19;;;-1.16;90.77
19114;BME280;9689;51.052;13.772;2023-03-03T06:42:13;101046.91;;;-1.17;90.78
19114;BME280;9689;51.052;13.772;2023-03-03T06:47:15;101042.16;;;-1.08;90.79
19114;BME280;9689;51.052;13.772;2023-03-03T06:52:19;101049.66;;;-1.12;90.66
19114;BME280;9689;51.052;13.772;2023-03-03T06:57:25;101040.66;;;-1.03;90.54
19114;BME280;9689;51.052;13.772;2023-03-03T07:02:27;101048.56;;;-1.19;90.00
19114;BME280;9689;51.052;13.772;2023-03-03T07:07:28;101062.22;;;-0.96;90.26
19114;BME280;9689;51.052;13.772;2023-03-03T07:12:29;101064.03;;;-0.94;89.81
19114;BME280;9689;51.052;13.772;2023-03-03T07:17:33;101049.84;;;-0.86;89.58
19114;BME280;9689;51.052;13.772;2023-03-03T07:22:33;101056.25;;;-0.74;89.83
19114;BME280;9689;51.052;13.772;2023-03-03T07:27:36;101060.00;;;-0.65;89.13
19114;BME280;9689;51.052;13.772;2023-03-03T07:32:39;101077.94;;;-0.65;89.37
19114;BME280;9689;51.052;13.772;2023-03-03T07:37:41;101082.69;;;-0.96;90.02
19114;BME280;9689;51.052;13.772;2023-03-03T07:42:42;101095.75;;;-1.11;90.52
19114;BME280;9689;51.052;13.772;2023-03-03T07:48:06;101100.22;;;-1.05;90.53
19114;BME280;9689;51.052;13.772;2023-03-03T07:53:14;101090.28;;;-0.98;90.34
19114;BME280;9689;51.052;13.772;2023-03-03T07:58:22;101090.19;;;-0.78;89.87
19114;BME280;9689;51.052;13.772;2023-03-03T08:03:25;101087.47;;;-0.83;89.90
19114;BME280;9689;51.052;13.772;2023-03-03T08:08:28;101096.34;;;-0.96;89.99
19114;BME280;9689;51.052;13.772;2023-03-03T08:13:36;101083.16;;;-0.84;90.20
19114;BME280;9689;51.052;13.772;2023-03-03T08:18:40;101093.41;;;-0.84;89.37
19114;BME280;9689;51.052;13.772;2023-03-03T08:23:42;101086.19;;;-0.72;89.22
19114;BME280;9689;51.052;13.772;2023-03-03T08:28:43;101080.16;;;-0.51;89.06
19114;BME280;9689;51.052;13.772;2023-03-03T08:33:45;101101.84;;;-0.64;87.87
19114;BME280;9689;51.052;13.772;2023-03-03T08:38:46;101089.03;;;-0.64;88.63
19114;BME280;9689;51.052;13.772;2023-03-03T08:43:47;101090.53;;;-0.47;88.03
19114;BME280;9689;51.052;13.772;2023-03-03T08:48:49;101109.38;;;-0.45;87.92
19114;BME280;9689;51.052;13.772;2023-03-03T08:53:51;101115.22;;;-0.49;87.48
19114;BME280;9689;51.052;13.772;2023-03-03T08:58:51;101099.28;;;-0.42;87.30
19114;BME280;9689;51.052;13.772;2023-03-03T09:04:02;101088.75;;;-0.49;87.83
19114;BME280;9689;51.052;13.772;2023-03-03T09:09:03;101102.56;;;-0.44;87.91
19114;BME280;9689;51.052;13.772;2023-03-03T09:14:09;101114.34;;;-0.49;88.20
19114;BME280;9689;51.052;13.772;2023-03-03T09:19:22;101109.91;;;-0.53;87.71
19114;BME280;9689;51.052;13.772;2023-03-03T09:24:26;101122.13;;;-0.46;87.27
19114;BME280;9689;51.052;13.772;2023-03-03T09:29:28;101118.19;;;-0.38;87.13
19114;BME280;9689;51.052;13.772;2023-03-03T09:34:37;101124.63;;;-0.25;86.74
19114;BME280;9689;51.052;13.772;2023-03-03T09:39:39;101128.25;;;-0.43;86.28
19114;BME280;9689;51.052;13.772;2023-03-03T09:44:52;101141.59;;;-0.28;86.22
19114;BME280;9689;51.052;13.772;2023-03-03T09:50:05;101140.00;;;-0.25;85.71
19114;BME280;9689;51.052;13.772;2023-03-03T09:55:21;101142.28;;;-0.09;85.37
19114;BME280;9689;51.052;13.772;2023-03-03T10:00:33;101150.88;;;-0.31;85.00
19114;BME280;9689;51.052;13.772;2023-03-03T10:05:45;101134.06;;;-0.24;84.34
19114;BME280;9689;51.052;13.772;2023-03-03T10:10:55;101135.75;;;-0.25;84.54
19114;BME280;9689;51.052;13.772;2023-03-03T10:16:15;101143.63;;;-0.19;83.77
19114;BME280;9689;51.052;13.772;2023-03-03T10:21:24;101162.44;;;-0.18;83.87
19114;BME280;9689;51.052;13.772;2023-03-03T10:26:50;101162.03;;;-0.29;83.98
19114;BME280;9689;51.052;13.772;2023-03-03T10:32:29;101146.38;;;-0.14;84.31
19114;BME280;9689;51.052;13.772;2023-03-03T10:37:49;101147.41;;;0.15;83.42
19114;BME280;9689;51.052;13.772;2023-03-03T10:48:46;101149.84;;;0.10;82.90
19114;BME280;9689;51.052;13.772;2023-03-03T10:53:58;101151.63;;;0.13;82.53
19114;BME280;9689;51.052;13.772;2023-03-03T10:59:15;101148.75;;;0.04;82.71
19114;BME280;9689;51.052;13.772;2023-03-03T11:05:03;101145.00;;;0.18;81.85
19114;BME280;9689;51.052;13.772;2023-03-03T11:10:27;101147.78;;;0.49;81.28
19114;BME280;9689;51.052;13.772;2023-03-03T11:15:38;101147.72;;;0.48;80.18
19114;BME280;9689;51.052;13.772;2023-03-03T11:20:45;101143.13;;;0.38;80.83
19114;BME280;9689;51.052;13.772;2023-03-03T11:25:59;101141.78;;;0.25;80.98
19114;BME280;9689;51.052;13.772;2023-03-03T11:31:15;101139.97;;;0.21;81.46
19114;BME280;9689;51.052;13.772;2023-03-03T11:36:22;101130.69;;;0.24;81.44
19114;BME280;9689;51.052;13.772;2023-03-03T11:41:34;101134.59;;;0.15;81.43
19114;BME280;9689;51.052;13.772;2023-03-03T11:46:39;101136.66;;;0.25;81.45
19114;BME280;9689;51.052;13.772;2023-03-03T11:51:48;101126.00;;;0.37;81.00
19114;BME280;9689;51.052;13.772;2023-03-03T11:56:56;101126.38;;;0.23;80.83
19114;BME280;9689;51.052;13.772;2023-03-03T12:02:05;101123.00;;;0.50;81.09
19114;BME280;9689;51.052;13.772;2023-03-03T12:07:21;101114.44;;;0.75;82.03
19114;BME280;9689;51.052;13.772;2023-03-03T12:12:31;101118.44;;;0.67;79.80
19114;BME280;9689;51.052;13.772;2023-03-03T12:17:50;101121.88;;;0.67;79.89
19114;BME280;9689;51.052;13.772;2023-03-03T12:23:06;101111.53;;;0.64;79.40
19114;BME280;9689;51.052;13.772;2023-03-03T12:28:16;101108.97;;;0.64;78.93
19114;BME280;9689;51.052;13.772;2023-03-03T12:33:24;101101.28;;;0.91;77.77
19114;BME280;9689;51.052;13.772;2023-03-03T12:38:37;101103.69;;;0.87;77.39
19114;BME280;9689;51.052;13.772;2023-03-03T12:43:54;101083.66;;;1.02;76.88
19114;BME280;9689;51.052;13.772;2023-03-03T12:49:03;101084.59;;;1.32;75.69
19114;BME280;9689;51.052;13.772;2023-03-03T12:54:31;101074.66;;;1.15;73.84
19114;BME280;9689;51.052;13.772;2023-03-03T12:59:47;101080.50;;;1.10;73.47
19114;BME280;9689;51.052;13.772;2023-03-03T13:04:55;101075.28;;;1.07;74.43
19114;BME280;9689;51.052;13.772;2023-03-03T13:10:06;101069.03;;;0.99;75.21
19114;BME280;9689;51.052;13.772;2023-03-03T13:15:14;101072.94;;;1.15;73.70
19114;BME280;9689;51.052;13.772;2023-03-03T13:20:23;101085.59;;;1.09;74.23
19114;BME280;9689;51.052;13.772;2023-03-03T13:25:37;101068.84;;;0.93;75.24
19114;BME280;9689;51.052;13.772;2023-03-03T13:30:47;101064.56;;;0.94;75.92
19114;BME280;9689;51.052;13.772;2023-03-03T13:35:53;101065.31;;;0.90;76.42
19114;BME280;9689;51.052;13.772;2023-03-03T13:41:01;101049.97;;;0.91;76.26
19114;BME280;9689;51.052;13.772;2023-03-03T13:46:12;101060.00;;;1.12;74.72
19114;BME280;9689;51.052;13.772;2023-03-03T13:51:22;101059.00;;;1.07;73.92
19114;BME280;9689;51.052;13.772;2023-03-03T13:56:42;101045.84;;;1.25;73.51
19114;BME280;9689;51.052;13.772;2023-03-03T14:01:54;101050.22;;;0.99;75.17
19114;BME280;9689;51.052;13.772;2023-03-03T14:07:02;101041.88;;;1.06;75.35
19114;BME280;9689;51.052;13.772;2023-03-03T14:12:10;101037.50;;;1.03;75.72
19114;BME280;9689;51.052;13.772;2023-03-03T14:17:23;101035.13;;;1.09;75.37
19114;BME280;9689;51.052;13.772;2023-03-03T14:22:33;101031.84;;;1.13;74.96
19114;BME280;9689;51.052;13.772;2023-03-03T14:28:01;101020.78;;;1.16;74.69
19114;BME280;9689;51.052;13.772;2023-03-03T14:33:19;101018.06;;;1.11;74.77
19114;BME280;9689;51.052;13.772;2023-03-03T14:38:22;101035.69;;;0.99;75.15
19114;BME280;9689;51.052;13.772;2023-03-03T14:43:25;101020.91;;;0.92;75.78
19114;BME280;9689;51.052;13.772;2023-03-03T14:48:49;101012.50;;;0.96;75.94
19114;BME280;9689;51.052;13.772;2023-03-03T14:53:50;101014.13;;;0.94;75.67
19114;BME280;9689;51.052;13.772;2023-03-03T14:58:53;101003.00;;;0.94;75.21
19114;BME280;9689;51.052;13.772;2023-03-03T15:04:00;101010.44;;;1.13;74.51
19114;BME280;9689;51.052;13.772;2023-03-03T15:09:28;101004.69;;;0.93;75.43
19114;BME280;9689;51.052;13.772;2023-03-03T15:14:37;101009.41;;;1.08;75.40
19114;BME280;9689;51.052;13.772;2023-03-03T15:20:02;101001.66;;;1.05;75.26
19114;BME280;9689;51.052;13.772;2023-03-03T15:25:10;101005.13;;;1.07;75.48
19114;BME280;9689;51.052;13.772;2023-03-03T15:30:22;101003.16;;;0.98;75.88
19114;BME280;9689;51.052;13.772;2023-03-03T15:35:33;100988.03;;;1.07;74.12
19114;BME280;9689;51.052;13.772;2023-03-03T15:40:45;101005.69;;;0.97;74.83
19114;BME280;9689;51.052;13.772;2023-03-03T15:45:49;100996.91;;;0.90;75.10
19114;BME280;9689;51.052;13.772;2023-03-03T15:51:02;101007.53;;;0.74;75.77
19114;BME280;9689;51.052;13.772;2023-03-03T15:56:14;101002.66;;;0.54;75.71
19114;BME280;9689;51.052;13.772;2023-03-03T16:01:28;101016.38;;;0.56;76.38
19114;BME280;9689;51.052;13.772;2023-03-03T16:06:40;101010.31;;;0.53;77.02
19114;BME280;9689;51.052;13.772;2023-03-03T16:11:49;101002.66;;;0.54;75.97
19114;BME280;9689;51.052;13.772;2023-03-03T16:16:54;101005.19;;;0.53;76.51
19114;BME280;9689;51.052;13.772;2023-03-03T16:22:23;101003.59;;;0.31;77.15
19114;BME280;9689;51.052;13.772;2023-03-03T16:27:33;101010.47;;;0.32;76.84
19114;BME280;9689;51.052;13.772;2023-03-03T16:32:40;101006.25;;;0.34;77.56
19114;BME280;9689;51.052;13.772;2023-03-03T16:37:53;101013.31;;;0.41;77.17
19114;BME280;9689;51.052;13.772;2023-03-03T16:42:59;101009.59;;;0.32;77.91
19114;BME280;9689;51.052;13.772;2023-03-03T16:48:13;101015.47;;;0.27;77.89
19114;BME280;9689;51.052;13.772;2023-03-03T16:53:28;101013.59;;;0.23;78.53
19114;BME280;9689;51.052;13.772;2023-03-03T16:58:40;101013.75;;;0.28;78.00
19114;BME280;9689;51.052;13.772;2023-03-03T17:03:52;101004.13;;;0.21;78.59
19114;BME280;9689;51.052;13.772;2023-03-03T17:09:06;101006.03;;;0.26;78.39
19114;BME280;9689;51.052;13.772;2023-03-03T17:14:43;101013.03;;;0.32;77.67
19114;BME280;9689;51.052;13.772;2023-03-03T17:19:54;101018.19;;;0.34;79.66
19114;BME280;9689;51.052;13.772;2023-03-03T17:25:09;101013.47;;;0.19;79.35
19114;BME280;9689;51.052;13.772;2023-03-03T17:30:16;101013.91;;;0.33;79.35
19114;BME280;9689;51.052;13.772;2023-03-03T17:35:31;101018.69;;;0.49;78.85
19114;BME280;9689;51.052;13.772;2023-03-03T17:40:48;101026.75;;;0.34;78.71
19114;BME280;9689;51.052;13.772;2023-03-03T17:45:54;101027.84;;;0.41;78.85
19114;BME280;9689;51.052;13.772;2023-03-03T17:56:42;101019.50;;;0.46;78.09
19114;BME280;9689;51.052;13.772;2023-03-03T18:01:56;101024.44;;;0.42;78.57
19114;BME280;9689;51.052;13.772;2023-03-03T18:07:18;101023.56;;;0.41;78.24
19114;BME280;9689;51.052;13.772;2023-03-03T18:12:29;101033.09;;;0.44;78.61
19114;BME280;9689;51.052;13.772;2023-03-03T18:17:44;101011.78;;;0.46;79.10
19114;BME280;9689;51.052;13.772;2023-03-03T18:22:49;101020.31;;;0.45;79.06
19114;BME280;9689;51.052;13.772;2023-03-03T18:28:20;101028.25;;;0.53;79.07
19114;BME280;9689;51.052;13.772;2023-03-03T18:33:40;101022.19;;;0.51;78.64
19114;BME280;9689;51.052;13.772;2023-03-03T18:38:45;101024.50;;;0.43;79.21
19114;BME280;9689;51.052;13.772;2023-03-03T18:43:53;101035.00;;;0.51;78.92
19114;BME280;9689;51.052;13.772;2023-03-03T18:48:57;101038.13;;;0.42;80.12
19114;BME280;9689;51.052;13.772;2023-03-03T18:54:04;101041.16;;;0.56;79.33
19114;BME280;9689;51.052;13.772;2023-03-03T18:59:39;101025.78;;;0.56;80.39
19114;BME280;9689;51.052;13.772;2023-03-03T19:04:50;101022.25;;;0.52;79.98
19114;BME280;9689;51.052;13.772;2023-03-03T19:09:56;101028.09;;;0.48;80.46
19114;BME280;9689;51.052;13.772;2023-03-03T19:15:01;101035.41;;;0.36;81.14
19114;BME280;9689;51.052;13.772;2023-03-03T19:20:08;101030.91;;;0.56;80.08
19114;BME280;9689;51.052;13.772;2023-03-03T19:25:17;101029.22;;;0.56;80.55
19114;BME280;9689;51.052;13.772;2023-03-03T19:30:41;101034.09;;;0.49;81.43
19114;BME280;9689;51.052;13.772;2023-03-03T19:36:04;101031.59;;;0.52;81.25
19114;BME280;9689;51.052;13.772;2023-03-03T19:41:19;101027.09;;;0.70;80.75
19114;BME280;9689;51.052;13.772;2023-03-03T19:46:46;101022.84;;;0.71;80.80
19114;BME280;9689;51.052;13.772;2023-03-03T19:51:53;101020.31;;;0.72;81.05
19114;BME280;9689;51.052;13.772;2023-03-03T19:56:59;101028.06;;;0.74;80.86
19114;BME280;9689;51.052;13.772;2023-03-03T20:02:22;101027.97;;;0.71;80.97
19114;BME280;9689;51.052;13.772;2023-03-03T20:07:30;101035.75;;;0.74;80.73
19114;BME280;9689;51.052;13.772;2023-03-03T20:12:43;101026.50;;;0.79;80.68
19114;BME280;9689;51.052;13.772;2023-03-03T20:23:28;101017.53;;;0.66;80.85
19114;BME280;9689;51.052;13.772;2023-03-03T20:34:11;100997.19;;;0.71;80.91
19114;BME280;9689;51.052;13.772;2023-03-03T20:39:21;101000.03;;;0.80;80.46
19114;BME280;9689;51.052;13.772;2023-03-03T20:44:35;100992.00;;;0.98;81.62
19114;BME280;9689;51.052;13.772;2023-03-03T20:49:52;100997.88;;;0.94;80.51
19114;BME280;9689;51.052;13.772;2023-03-03T20:55:03;100988.47;;;0.94;80.14
19114;BME280;9689;51.052;13.772;2023-03-03T21:00:13;100991.03;;;0.94;79.99
19114;BME280;9689;51.052;13.772;2023-03-03T21:05:17;100985.84;;;0.93;80.32
19114;BME280;9689;51.052;13.772;2023-03-03T21:10:22;100979.78;;;0.89;80.31
19114;BME280;9689;51.052;13.772;2023-03-03T21:15:28;100984.19;;;0.95;80.53
19114;BME280;9689;51.052;13.772;2023-03-03T21:20:31;100972.47;;;1.03;80.22
19114;BME280;9689;51.052;13.772;2023-03-03T21:25:48;100971.44;;;0.96;80.23
19114;BME280;9689;51.052;13.772;2023-03-03T21:31:10;100969.03;;;1.02;80.24
19114;BME280;9689;51.052;13.772;2023-03-03T21:36:13;100969.63;;;0.94;80.42
19114;BME280;9689;51.052;13.772;2023-03-03T21:41:16;100960.63;;;1.06;79.86
19114;BME280;9689;51.052;13.772;2023-03-03T21:46:18;100963.06;;;1.03;79.98
19114;BME280;9689;51.052;13.772;2023-03-03T21:51:19;100951.13;;;1.04;80.06
19114;BME280;9689;51.052;13.772;2023-03-03T21:56:24;100955.75;;;1.16;79.54
19114;BME280;9689;51.052;13.772;2023-03-03T22:01:24;100952.13;;;1.09;79.28
19114;BME280;9689;51.052;13.772;2023-03-03T22:06:25;100954.66;;;1.07;79.90
19114;BME280;9689;51.052;13.772;2023-03-03T22:11:28;100952.00;;;1.04;79.92
19114;BME280;9689;51.052;13.772;2023-03-03T22:16:29;100950.13;;;0.99;79.28
19114;BME280;9689;51.052;13.772;2023-03-03T22:21:30;100952.97;;;1.08;79.59
19114;BME280;9689;51.052;13.772;2023-03-03T22:26:33;100943.72;;;1.13;79.44
19114;BME280;9689;51.052;13.772;2023-03-03T22:31:34;100940.19;;;1.11;79.63
19114;BME280;9689;51.052;13.772;2023-03-03T22:36:34;100935.19;;;1.14;79.57
19114;BME280;9689;51.052;13.772;2023-03-03T22:41:36;100935.19;;;1.14;79.63
19114;BME280;9689;51.052;13.772;2023-03-03T22:46:37;100933.25;;;1.07;79.45
19114;BME280;9689;51.052;13.772;2023-03-03T22:51:38;100930.69;;;1.07;80.07
19114;BME280;9689;51.052;13.772;2023-03-03T22:56:40;100923.16;;;1.13;79.54
19114;BME280;9689;51.052;13.772;2023-03-03T23:01:41;100929.06;;;1.10;79.10
19114;BME280;9689;51.052;13.772;2023-03-03T23:06:42;100919.59;;;1.08;78.54
19114;BME280;9689;51.052;13.772;2023-03-03T23:11:45;100912.75;;;1.08;78.88
19114;BME280;9689;51.052;13.772;2023-03-03T23:16:46;100914.50;;;1.09;78.73
19114;BME280;9689;51.052;13.772;2023-03-03T23:21:47;100903.63;;;1.18;78.67
19114;BME280;9689;51.052;13.772;2023-03-03T23:26:49;100886.41;;;1.14;78.62
19114;BME280;9689;51.052;13.772;2023-03-03T23:31:55;100885.63;;;1.17;78.21
19114;BME280;9689;51.052;13.772;2023-03-03T23:36:56;100878.50;;;1.06;78.92
19114;BME280;9689;51.052;13.772;2023-03-03T23:41:58;100890.75;;;1.17;78.28
19114;BME280;9689;51.052;13.772;2023-03-03T23:46:58;100875.13;;;1.09;78.37
19114;BME280;9689;51.052;13.772;2023-03-03T23:51:59;100883.78;;;1.12;78.17
19114;BME280;9689;51.052;13.772;2023-03-03T23:57:01;100876.19;;;1.16;78.19
